Pertusola — IBER — position and weather

sailwx.info

Track history (hours):
 
Tides and Currents Weather Stations Pressure Air Temp Water Temp Dewpoint Dewpoint Depression Visibility Wind Speed Wind Dir Waves Ship Positions

Pertusola

Last reported at 2014-Jul-28 09:31 UTC. Time now 2014-Jul-28 10:25 UTC.
Position N 54°10' E 012°08'.

Length 145 m; draft 9.1 m.

Type: Ship (hazmat cat A). MMSI: 247399000.

Date/timePositionNaut miles runAvg speedWind from/ knotsBaromVisibWave heightAir tempDewpointWater temp
2014-Jul-28 09:31N 54°10' E 012°08'0 0.0
2014-Jul-28 08:22N 54°10' E 012°08'0 0.0
2014-Jul-28 07:31N 54°10' E 012°08'0 0.0
2014-Jul-28 06:31N 54°10' E 012°08'0 0.0
2014-Jul-28 05:31N 54°10' E 012°08'0 0.0
2014-Jul-28 04:31N 54°10' E 012°08'0 0.0
2014-Jul-28 03:31N 54°10' E 012°08'0 0.0
2014-Jul-28 02:31N 54°10' E 012°08'0 0.0
2014-Jul-28 01:31N 54°10' E 012°08'0 0.0
2014-Jul-27 23:31N 54°10' E 012°08'0 0.0
2014-Jul-27 22:31N 54°10' E 012°08'0 0.0
2014-Jul-27 21:31N 54°10' E 012°08'0 0.0
2014-Jul-27 20:31N 54°10' E 012°08'0 0.0
2014-Jul-27 19:31N 54°10' E 012°08'0 0.0
2014-Jul-27 18:13N 54°10' E 012°08'0 0.0
2014-Jul-27 17:25N 54°10' E 012°08'0 0.0
2014-Jul-27 16:16N 54°10' E 012°08'0 0.0
2014-Jul-27 15:31N 54°10' E 012°08'0 0.0
2014-Jul-27 14:31N 54°10' E 012°08'0 0.0
2014-Jul-27 13:31N 54°10' E 012°08'0 0.0
2014-Jul-27 12:31N 54°10' E 012°08'0 0.0
2014-Jul-27 11:28N 54°10' E 012°08'0 0.0
2014-Jul-27 09:28N 54°10' E 012°08'0 0.0
2014-Jul-27 08:28N 54°10' E 012°08'0 0.0
2014-Jul-27 07:33N 54°10' E 012°08'1 0.6
2014-Jul-27 06:33N 54°10' E 012°07'7 7.2
2014-Jul-27 05:33N 54°15' E 012°00'1010.5
2014-Jul-27 04:33N 54°23' E 011°49'1312.9
2014-Jul-27 03:34N 54°30' E 011°29'1212.4
2014-Jul-27 02:33N 54°35' E 011°10'57 6.3
2014-Jul-26 17:26N 54°16' E 009°38'13 4.5
2014-Jul-26 14:29N 54°08' E 009°20'5 5.4
2014-Jul-26 13:32N 54°03' E 009°18'4 4.3
2014-Jul-26 12:33N 53°59' E 009°16'4 4.5
2014-Jul-26 11:34N 53°55' E 009°12'0 0.0
2014-Jul-26 06:14N 53°55' E 009°12'0 0.0
2014-Jul-26 00:08N 53°55' E 009°12'0 0.0
2014-Jul-25 18:20N 53°55' E 009°12'0 0.0
2014-Jul-25 17:32N 53°55' E 009°12'0 0.0
2014-Jul-25 16:26N 53°55' E 009°12'0 0.0
2014-Jul-25 15:23N 53°55' E 009°12'0 0.0
2014-Jul-25 14:32N 53°55' E 009°12'5 5.2
2014-Jul-25 13:32N 53°59' E 009°17'9 8.3
2014-Jul-25 12:27N 54°08' E 009°20'9 7.1
2014-Jul-25 11:11N 54°12' E 009°34'25 4.1
2014-Jul-25 05:08N 54°23' E 010°12'711.4
2014-Jul-25 04:33N 54°29' E 010°16'1212.1
2014-Jul-25 03:33N 54°34' E 010°35'1413.9
2014-Jul-25 02:33N 54°36' E 010°59'1414.3
2014-Jul-25 01:33N 54°33' E 011°23'1414.2
2014-Jul-25 00:33N 54°27' E 011°45'1413.7
2014-Jul-24 23:33N 54°17' E 012°02'9 8.6
2014-Jul-24 22:33N 54°10' E 012°08'0 0.3
2014-Jul-24 21:33N 54°10' E 012°08'0 0.0
2014-Jul-24 20:33N 54°10' E 012°08'0 0.0
2014-Jul-24 19:30N 54°10' E 012°08'0 0.0
2014-Jul-24 18:30N 54°10' E 012°08'0 0.0
2014-Jul-24 17:33N 54°10' E 012°08'0 0.0
2014-Jul-24 16:33N 54°10' E 012°08'0 0.0
2014-Jul-24 15:33N 54°10' E 012°08'0 0.0
2014-Jul-24 14:33N 54°10' E 012°08'0 0.0
2014-Jul-24 13:33N 54°10' E 012°08'0 0.0
2014-Jul-24 12:33N 54°10' E 012°08'0 0.0
2014-Jul-24 11:30N 54°10' E 012°08'0 0.0
2014-Jul-24 10:33N 54°10' E 012°08'0 0.0
2014-Jul-24 09:33N 54°10' E 012°08'0 0.0
2014-Jul-24 08:27N 54°10' E 012°08'0 0.0
2014-Jul-24 07:33N 54°10' E 012°08'0 0.0
2014-Jul-24 06:33N 54°10' E 012°08'0 0.0
2014-Jul-24 05:33N 54°10' E 012°08'0 0.0
2014-Jul-24 04:33N 54°10' E 012°08'0 0.0
2014-Jul-24 03:33N 54°10' E 012°08'0 0.0
2014-Jul-24 02:33N 54°10' E 012°08'0 0.0
2014-Jul-24 01:27N 54°10' E 012°08'0 0.0
2014-Jul-24 00:30N 54°10' E 012°08'0 0.0
2014-Jul-23 23:27N 54°10' E 012°08'0 0.0
2014-Jul-23 22:06N 54°10' E 012°08'0 0.0
2014-Jul-23 21:33N 54°10' E 012°08'0 0.4
2014-Jul-23 20:33N 54°10' E 012°08'6 5.6
2014-Jul-23 19:33N 54°14' E 012°02'8 8.5
2014-Jul-23 18:33N 54°21' E 011°53'1312.6
2014-Jul-23 17:33N 54°28' E 011°35'1212.4
2014-Jul-23 16:33N 54°33' E 011°16'1311.8
2014-Jul-23 15:29N 54°40' E 010°57'5811.8
2014-Jul-23 10:32N 55°38' E 010°47'1313.0
2014-Jul-23 09:33N 55°50' E 010°50'1313.4
2014-Jul-23 08:33N 56°01' E 011°04'1313.3
2014-Jul-23 07:33N 56°15' E 011°04'1110.6
2014-Jul-23 06:33N 56°25' E 011°07'1211.3
2014-Jul-23 05:32N 56°32' E 011°23'1312.8
2014-Jul-23 04:32N 56°40' E 011°41'1110.7
2014-Jul-23 03:33N 56°50' E 011°48'1312.7
2014-Jul-23 02:33N 57°02' E 011°40'1212.6
2014-Jul-23 01:33N 57°14' E 011°32'1212.1
2014-Jul-23 00:33N 57°26' E 011°25'1211.7
2014-Jul-22 23:33N 57°34' E 011°10'1212.5
2014-Jul-22 22:33N 57°43' E 010°53'1212.2
2014-Jul-22 21:33N 57°48' E 010°32'1313.0
2014-Jul-22 20:33N 57°48' E 010°08'3112.6
2014-Jul-22 18:05N 57°39' E 009°12'8012.2
2014-Jul-22 11:32N 56°42' E 007°28'1312.8
2014-Jul-22 10:32N 56°31' E 007°15'1212.5
2014-Jul-22 09:33N 56°21' E 007°04'4613.2
2014-Jul-22 06:05N 55°41' E 006°22'8612.7
2014-Jul-21 23:18N 54°31' E 004°55'912.2
2014-Jul-21 22:32N 54°24' E 004°44'2412.0
2014-Jul-21 20:33N 54°07' E 004°16'312.2
2014-Jul-21 20:18N 54°05' E 004°12'11111.0
2014-Jul-21 10:17N 52°29' E 002°41'1413.5
2014-Jul-21 09:17N 52°15' E 002°40'2313.1
2014-Jul-21 07:31N 51°52' E 002°39'1212.6
2014-Jul-21 06:33N 51°41' E 002°30'1212.5
2014-Jul-21 05:33N 51°31' E 002°18'1211.8
2014-Jul-21 04:33N 51°21' E 002°09'1110.9
2014-Jul-21 03:34N 51°12' E 001°58'1111.0
2014-Jul-21 02:34N 51°06' E 001°44'1110.6
2014-Jul-21 01:33N 50°58' E 001°32'1610.9
2014-Jul-21 00:07N 50°44' E 001°23'1811.4
2014-Jul-20 22:33N 50°32' E 001°02'1411.8
2014-Jul-20 21:22N 50°28' E 000°41'1011.9
2014-Jul-20 20:33N 50°25' E 000°26'1412.0
2014-Jul-20 19:22N 50°21' E 000°05'2312.4
2014-Jul-20 17:29N 50°15' W 000°30'1813.5
2014-Jul-20 16:11N 50°10' W 000°56'4015.1
2014-Jul-20 13:32N 49°59' W 001°56'  
Track history (hours):
 
Tides and Currents Weather Stations Pressure Air Temp Water Temp Dewpoint Dewpoint Depression Visibility Wind Speed Wind Dir Waves Ship Positions

Pertusola

Last reported at 2014-Jul-28 09:31 UTC. Time now 2014-Jul-28 10:25 UTC.
Position N 54°10' E 012°08'.

Length 145 m; draft 9.1 m.

Type: Ship (hazmat cat A). MMSI: 247399000.

Date/timePositionNaut miles runAvg speedWind from/ knotsBaromVisibWave heightAir tempDewpointWater temp
2014-Jul-28 09:31N 54°10' E 012°08'0 0.0
2014-Jul-28 08:22N 54°10' E 012°08'0 0.0
2014-Jul-28 07:31N 54°10' E 012°08'0 0.0
2014-Jul-28 06:31N 54°10' E 012°08'0 0.0
2014-Jul-28 05:31N 54°10' E 012°08'0 0.0
2014-Jul-28 04:31N 54°10' E 012°08'0 0.0
2014-Jul-28 03:31N 54°10' E 012°08'0 0.0
2014-Jul-28 02:31N 54°10' E 012°08'0 0.0
2014-Jul-28 01:31N 54°10' E 012°08'0 0.0
2014-Jul-27 23:31N 54°10' E 012°08'0 0.0
2014-Jul-27 22:31N 54°10' E 012°08'0 0.0
2014-Jul-27 21:31N 54°10' E 012°08'0 0.0
2014-Jul-27 20:31N 54°10' E 012°08'0 0.0
2014-Jul-27 19:31N 54°10' E 012°08'0 0.0
2014-Jul-27 18:13N 54°10' E 012°08'0 0.0
2014-Jul-27 17:25N 54°10' E 012°08'0 0.0
2014-Jul-27 16:16N 54°10' E 012°08'0 0.0
2014-Jul-27 15:31N 54°10' E 012°08'0 0.0
2014-Jul-27 14:31N 54°10' E 012°08'0 0.0
2014-Jul-27 13:31N 54°10' E 012°08'0 0.0
2014-Jul-27 12:31N 54°10' E 012°08'0 0.0
2014-Jul-27 11:28N 54°10' E 012°08'0 0.0
2014-Jul-27 09:28N 54°10' E 012°08'0 0.0
2014-Jul-27 08:28N 54°10' E 012°08'0 0.0
2014-Jul-27 07:33N 54°10' E 012°08'1 0.6
2014-Jul-27 06:33N 54°10' E 012°07'7 7.2
2014-Jul-27 05:33N 54°15' E 012°00'1010.5
2014-Jul-27 04:33N 54°23' E 011°49'1312.9
2014-Jul-27 03:34N 54°30' E 011°29'1212.4
2014-Jul-27 02:33N 54°35' E 011°10'57 6.3
2014-Jul-26 17:26N 54°16' E 009°38'13 4.5
2014-Jul-26 14:29N 54°08' E 009°20'5 5.4
2014-Jul-26 13:32N 54°03' E 009°18'4 4.3
2014-Jul-26 12:33N 53°59' E 009°16'4 4.5
2014-Jul-26 11:34N 53°55' E 009°12'0 0.0
2014-Jul-26 06:14N 53°55' E 009°12'0 0.0
2014-Jul-26 00:08N 53°55' E 009°12'0 0.0
2014-Jul-25 18:20N 53°55' E 009°12'0 0.0
2014-Jul-25 17:32N 53°55' E 009°12'0 0.0
2014-Jul-25 16:26N 53°55' E 009°12'0 0.0
2014-Jul-25 15:23N 53°55' E 009°12'0 0.0
2014-Jul-25 14:32N 53°55' E 009°12'5 5.2
2014-Jul-25 13:32N 53°59' E 009°17'9 8.3
2014-Jul-25 12:27N 54°08' E 009°20'9 7.1
2014-Jul-25 11:11N 54°12' E 009°34'25 4.1
2014-Jul-25 05:08N 54°23' E 010°12'711.4
2014-Jul-25 04:33N 54°29' E 010°16'1212.1
2014-Jul-25 03:33N 54°34' E 010°35'1413.9
2014-Jul-25 02:33N 54°36' E 010°59'1414.3
2014-Jul-25 01:33N 54°33' E 011°23'1414.2
2014-Jul-25 00:33N 54°27' E 011°45'1413.7
2014-Jul-24 23:33N 54°17' E 012°02'9 8.6
2014-Jul-24 22:33N 54°10' E 012°08'0 0.3
2014-Jul-24 21:33N 54°10' E 012°08'0 0.0
2014-Jul-24 20:33N 54°10' E 012°08'0 0.0
2014-Jul-24 19:30N 54°10' E 012°08'0 0.0
2014-Jul-24 18:30N 54°10' E 012°08'0 0.0
2014-Jul-24 17:33N 54°10' E 012°08'0 0.0
2014-Jul-24 16:33N 54°10' E 012°08'0 0.0
2014-Jul-24 15:33N 54°10' E 012°08'0 0.0
2014-Jul-24 14:33N 54°10' E 012°08'0 0.0
2014-Jul-24 13:33N 54°10' E 012°08'0 0.0
2014-Jul-24 12:33N 54°10' E 012°08'0 0.0
2014-Jul-24 11:30N 54°10' E 012°08'0 0.0
2014-Jul-24 10:33N 54°10' E 012°08'0 0.0
2014-Jul-24 09:33N 54°10' E 012°08'0 0.0
2014-Jul-24 08:27N 54°10' E 012°08'0 0.0
2014-Jul-24 07:33N 54°10' E 012°08'0 0.0
2014-Jul-24 06:33N 54°10' E 012°08'0 0.0
2014-Jul-24 05:33N 54°10' E 012°08'0 0.0
2014-Jul-24 04:33N 54°10' E 012°08'0 0.0
2014-Jul-24 03:33N 54°10' E 012°08'0 0.0
2014-Jul-24 02:33N 54°10' E 012°08'0 0.0
2014-Jul-24 01:27N 54°10' E 012°08'0 0.0
2014-Jul-24 00:30N 54°10' E 012°08'0 0.0
2014-Jul-23 23:27N 54°10' E 012°08'0 0.0
2014-Jul-23 22:06N 54°10' E 012°08'0 0.0
2014-Jul-23 21:33N 54°10' E 012°08'0 0.4
2014-Jul-23 20:33N 54°10' E 012°08'6 5.6
2014-Jul-23 19:33N 54°14' E 012°02'8 8.5
2014-Jul-23 18:33N 54°21' E 011°53'1312.6
2014-Jul-23 17:33N 54°28' E 011°35'1212.4
2014-Jul-23 16:33N 54°33' E 011°16'1311.8
2014-Jul-23 15:29N 54°40' E 010°57'5811.8
2014-Jul-23 10:32N 55°38' E 010°47'1313.0
2014-Jul-23 09:33N 55°50' E 010°50'1313.4
2014-Jul-23 08:33N 56°01' E 011°04'1313.3
2014-Jul-23 07:33N 56°15' E 011°04'1110.6
2014-Jul-23 06:33N 56°25' E 011°07'1211.3
2014-Jul-23 05:32N 56°32' E 011°23'1312.8
2014-Jul-23 04:32N 56°40' E 011°41'1110.7
2014-Jul-23 03:33N 56°50' E 011°48'1312.7
2014-Jul-23 02:33N 57°02' E 011°40'1212.6
2014-Jul-23 01:33N 57°14' E 011°32'1212.1
2014-Jul-23 00:33N 57°26' E 011°25'1211.7
2014-Jul-22 23:33N 57°34' E 011°10'1212.5
2014-Jul-22 22:33N 57°43' E 010°53'1212.2
2014-Jul-22 21:33N 57°48' E 010°32'1313.0
2014-Jul-22 20:33N 57°48' E 010°08'3112.6
2014-Jul-22 18:05N 57°39' E 009°12'8012.2
2014-Jul-22 11:32N 56°42' E 007°28'1312.8
2014-Jul-22 10:32N 56°31' E 007°15'1212.5
2014-Jul-22 09:33N 56°21' E 007°04'4613.2
2014-Jul-22 06:05N 55°41' E 006°22'8612.7
2014-Jul-21 23:18N 54°31' E 004°55'912.2
2014-Jul-21 22:32N 54°24' E 004°44'2412.0
2014-Jul-21 20:33N 54°07' E 004°16'312.2
2014-Jul-21 20:18N 54°05' E 004°12'11111.0
2014-Jul-21 10:17N 52°29' E 002°41'1413.5
2014-Jul-21 09:17N 52°15' E 002°40'2313.1
2014-Jul-21 07:31N 51°52' E 002°39'1212.6
2014-Jul-21 06:33N 51°41' E 002°30'1212.5
2014-Jul-21 05:33N 51°31' E 002°18'1211.8
2014-Jul-21 04:33N 51°21' E 002°09'1110.9
2014-Jul-21 03:34N 51°12' E 001°58'1111.0
2014-Jul-21 02:34N 51°06' E 001°44'1110.6
2014-Jul-21 01:33N 50°58' E 001°32'1610.9
2014-Jul-21 00:07N 50°44' E 001°23'1811.4
2014-Jul-20 22:33N 50°32' E 001°02'1411.8
2014-Jul-20 21:22N 50°28' E 000°41'1011.9
2014-Jul-20 20:33N 50°25' E 000°26'1412.0
2014-Jul-20 19:22N 50°21' E 000°05'2312.4
2014-Jul-20 17:29N 50°15' W 000°30'1813.5
2014-Jul-20 16:11N 50°10' W 000°56'4015.1
2014-Jul-20 13:32N 49°59' W 001°56'  

Dump ship's entire track history